Terminal Aerodrome Forecast
Issued by NWS

Home | Current Version | Previous Version | Text Only | Print | Product List | Glossary On
Versions: 1 2 3 4 5 6 7 8 9 10 11 12 13 14 15 16 17
573
FTUS46 KLOX 282345
TAFVNY
TAF
KVNY 282345Z 2900/2924 13008KT P6SM SKC
     FM290200 28008KT P6SM SKC
     FM290500 VRB03KT P6SM SKC
     FM292000 14008KT P6SM SKC
     FM292300 28008KT P6SM SKC=

USA.gov is the U.S. government's official web portal to all federal, state and local government web resources and services.